createdAt,value
2019-05-05T00:02:39.530Z,8.50
2019-05-05T00:05:35.696Z,13.07
2019-05-05T00:08:26.309Z,10.00
2019-05-05T00:11:36.616Z,6.70
2019-05-05T00:14:44.227Z,7.10
2019-05-05T00:17:34.669Z,8.70
2019-05-05T00:20:25.163Z,7.63
2019-05-05T00:23:16.805Z,5.80
2019-05-05T00:26:07.352Z,9.43
2019-05-05T00:28:58.692Z,7.70
2019-05-05T00:31:49.166Z,8.73
2019-05-05T00:34:39.660Z,5.70
2019-05-05T00:37:30.142Z,10.93
2019-05-05T00:40:20.543Z,9.87
2019-05-05T00:43:10.931Z,7.20
2019-05-05T00:46:09.072Z,8.87
2019-05-05T00:48:59.371Z,9.57
2019-05-05T00:51:49.919Z,9.07
2019-05-05T00:54:40.632Z,7.40
2019-05-05T00:57:31.146Z,10.13
2019-05-05T01:00:44.258Z,9.03
2019-05-05T01:03:34.859Z,10.23
2019-05-05T01:06:27.461Z,12.97
2019-05-05T01:09:19.328Z,11.53
2019-05-05T01:12:10.188Z,10.90
2019-05-05T01:15:00.322Z,9.17
2019-05-05T01:17:50.858Z,12.13
2019-05-05T01:20:41.285Z,13.53
2019-05-05T01:23:34.795Z,9.97
2019-05-05T01:26:24.947Z,8.00
2019-05-05T01:29:15.687Z,11.77
2019-05-05T01:32:08.564Z,11.50
2019-05-05T01:34:58.904Z,13.83
2019-05-05T01:37:55.185Z,10.37
2019-05-05T01:41:25.259Z,13.20
2019-05-05T01:44:15.839Z,10.87
2019-05-05T01:47:06.279Z,19.03
2019-05-05T01:49:57.195Z,10.33
2019-05-05T01:52:48.392Z,15.07
2019-05-05T01:55:38.933Z,11.43
2019-05-05T01:58:29.269Z,15.23
2019-05-05T02:01:19.468Z,10.87
2019-05-05T02:04:09.607Z,9.83
2019-05-05T02:07:00.107Z,10.33
2019-05-05T02:09:50.808Z,13.63
2019-05-05T02:12:41.459Z,10.90
2019-05-05T02:15:34.184Z,13.43
2019-05-05T02:18:25.346Z,14.33
2019-05-05T02:21:15.850Z,15.33
2019-05-05T02:24:08.684Z,13.90
2019-05-05T02:26:59.306Z,10.07
2019-05-05T02:29:59.629Z,12.73
2019-05-05T02:32:57.888Z,11.37
2019-05-05T02:35:48.118Z,11.43
2019-05-05T02:38:38.568Z,13.87
2019-05-05T02:41:29.031Z,13.20
2019-05-05T02:44:19.337Z,11.53
2019-05-05T02:47:25.682Z,11.77
2019-05-05T02:50:15.723Z,13.27
2019-05-05T02:53:06.377Z,10.47
2019-05-05T02:55:59.957Z,10.10
2019-05-05T02:58:50.183Z,11.80
2019-05-05T03:01:56.258Z,12.93
2019-05-05T03:04:46.951Z,11.27
2019-05-05T03:07:37.648Z,14.60
2019-05-05T03:10:27.892Z,12.57
2019-05-05T03:13:18.152Z,13.20
2019-05-05T03:16:16.421Z,13.80
2019-05-05T03:19:07.178Z,14.83
2019-05-05T03:21:57.499Z,16.43
2019-05-05T03:24:48.102Z,10.63
2019-05-05T03:27:38.583Z,13.67
2019-05-05T03:30:29.813Z,13.87
2019-05-05T03:33:19.954Z,12.07
2019-05-05T03:36:10.449Z,12.03
2019-05-05T03:39:00.704Z,14.67
2019-05-05T03:42:03.634Z,11.77
2019-05-05T03:45:06.853Z,13.60
2019-05-05T03:47:57.336Z,9.83
2019-05-05T03:50:47.798Z,13.57
2019-05-05T03:53:38.098Z,11.27
2019-05-05T03:56:28.520Z,14.27
2019-05-05T03:59:19.018Z,14.53
2019-05-05T04:02:37.465Z,12.13
2019-05-05T04:05:33.992Z,11.87
2019-05-05T04:08:24.416Z,8.87
2019-05-05T04:11:14.828Z,11.07
2019-05-05T04:14:05.291Z,15.70
2019-05-05T04:17:18.760Z,9.93
2019-05-05T04:20:30.238Z,9.63
2019-05-05T04:23:20.744Z,15.93
2019-05-05T04:26:10.945Z,9.87
2019-05-05T04:29:04.667Z,11.90
2019-05-05T04:31:54.015Z,13.23
2019-05-05T04:34:44.898Z,9.73
2019-05-05T04:37:35.236Z,10.40
2019-05-05T04:40:26.436Z,7.47
2019-05-05T04:43:16.848Z,14.60
2019-05-05T04:46:07.262Z,11.80
2019-05-05T04:49:04.457Z,8.67
2019-05-05T04:51:55.446Z,9.07
2019-05-05T04:54:50.733Z,8.70
2019-05-05T04:57:40.939Z,9.57
2019-05-05T05:00:31.381Z,10.83
2019-05-05T05:03:40.273Z,8.30
2019-05-05T05:06:40.905Z,15.00
2019-05-05T05:09:34.030Z,8.13
2019-05-05T05:12:23.910Z,7.90
2019-05-05T05:15:14.722Z,11.37
2019-05-05T05:18:16.865Z,7.27
2019-05-05T05:21:08.707Z,7.20
2019-05-05T05:23:59.136Z,11.50
2019-05-05T05:26:49.592Z,8.67
2019-05-05T05:29:40.026Z,11.70
2019-05-05T05:32:30.682Z,6.17
2019-05-05T05:35:20.792Z,10.10
2019-05-05T05:38:11.151Z,9.73
2019-05-05T05:41:23.938Z,8.10
2019-05-05T05:44:21.377Z,8.47
2019-05-05T05:47:36.404Z,10.13
2019-05-05T05:50:33.925Z,9.93
2019-05-05T05:53:24.628Z,11.40
2019-05-05T05:56:16.029Z,13.87
2019-05-05T05:59:06.512Z,10.03
2019-05-05T06:02:08.993Z,15.33
2019-05-05T06:04:48.596Z,13.07
2019-05-05T06:07:38.885Z,10.23
2019-05-05T06:10:29.469Z,10.43
2019-05-05T06:13:20.016Z,16.97
2019-05-05T06:16:10.458Z,13.27
2019-05-05T06:19:03.500Z,14.07
2019-05-05T06:21:54.315Z,12.37
2019-05-05T06:24:44.967Z,9.10
2019-05-05T06:27:35.464Z,11.63
2019-05-05T06:30:25.645Z,13.17
2019-05-05T06:33:16.241Z,14.57
2019-05-05T06:36:06.744Z,10.40
2019-05-05T06:38:57.196Z,11.80
2019-05-05T06:42:09.576Z,13.47
2019-05-05T06:45:16.094Z,13.83
2019-05-05T06:48:06.355Z,18.43
2019-05-05T06:50:57.732Z,16.57
2019-05-05T06:53:48.300Z,22.03
2019-05-05T06:56:38.583Z,21.43
2019-05-05T06:59:29.120Z,21.17
2019-05-05T07:02:19.481Z,22.03
2019-05-05T07:05:09.654Z,22.97
2019-05-05T07:08:01.631Z,17.98
2019-05-05T07:10:54.743Z,24.30
2019-05-05T07:13:45.313Z,25.15
2019-05-05T07:16:36.571Z,19.02
2019-05-05T07:19:27.680Z,21.93
2019-05-05T07:22:19.848Z,26.55
2019-05-05T07:25:11.170Z,25.97
2019-05-05T07:28:04.218Z,21.65
2019-05-05T07:30:55.333Z,22.05
2019-05-05T07:33:46.650Z,25.68
2019-05-05T07:36:48.763Z,24.00
2019-05-05T07:39:39.194Z,25.60
2019-05-05T07:42:29.590Z,35.83
2019-05-05T07:45:22.967Z,24.20
2019-05-05T07:48:13.696Z,28.93
2019-05-05T07:51:05.261Z,31.20
2019-05-05T07:53:56.608Z,36.40
2019-05-05T07:56:47.511Z,25.97
2019-05-05T07:59:37.981Z,31.10
2019-05-05T08:02:28.412Z,18.57
2019-05-05T08:05:19.437Z,19.20
2019-05-05T08:08:10.647Z,19.83
2019-05-05T08:11:01.234Z,18.02
2019-05-05T08:13:54.747Z,25.00
2019-05-05T08:17:01.452Z,31.53
2019-05-05T08:19:58.593Z,27.37
2019-05-05T08:22:48.696Z,26.17
2019-05-05T08:25:54.134Z,30.03
2019-05-05T08:28:53.991Z,31.97
2019-05-05T08:31:53.663Z,32.83
2019-05-05T08:34:56.933Z,29.23
2019-05-05T08:37:35.956Z,20.17
2019-05-05T08:40:27.037Z,22.42
2019-05-05T08:43:18.137Z,20.17
2019-05-05T08:46:09.332Z,17.07
2019-05-05T08:49:00.567Z,29.35
2019-05-05T08:51:51.642Z,31.52
2019-05-05T08:54:44.468Z,23.35
2019-05-05T08:57:35.285Z,20.90
2019-05-05T09:00:26.374Z,20.05
2019-05-05T09:03:17.337Z,28.77
2019-05-05T09:06:08.113Z,22.90
2019-05-05T09:08:59.068Z,29.63
2019-05-05T09:11:50.209Z,25.27
2019-05-05T09:14:41.240Z,29.27
2019-05-05T09:17:33.592Z,21.53
2019-05-05T09:20:24.301Z,32.30
2019-05-05T09:23:15.006Z,31.50
2019-05-05T09:26:36.339Z,32.17
2019-05-05T09:29:34.733Z,32.37
2019-05-05T09:32:24.889Z,29.13
2019-05-05T09:35:15.134Z,37.00
2019-05-05T09:38:05.574Z,30.93
2019-05-05T09:40:56.069Z,26.37
2019-05-05T09:43:46.496Z,25.72
2019-05-05T09:46:39.572Z,29.43
2019-05-05T09:49:28.866Z,28.90
2019-05-05T09:52:19.435Z,20.57
2019-05-05T09:55:13.846Z,25.47
2019-05-05T09:58:04.490Z,20.90
2019-05-05T10:00:55.986Z,22.90
2019-05-05T10:03:46.463Z,27.90
2019-05-05T10:06:37.335Z,25.73
2019-05-05T10:09:27.999Z,23.83
2019-05-05T10:12:18.373Z,23.57
2019-05-05T10:15:09.067Z,24.43
2019-05-05T10:17:59.460Z,29.67
2019-05-05T10:20:50.004Z,22.87
2019-05-05T10:23:43.620Z,26.23
2019-05-05T10:26:35.119Z,26.33
2019-05-05T10:29:25.611Z,30.73
2019-05-05T10:32:16.305Z,26.37
2019-05-05T10:35:06.753Z,30.87
2019-05-05T10:37:57.096Z,28.50
2019-05-05T10:40:48.406Z,25.13
2019-05-05T10:43:38.800Z,28.63
2019-05-05T10:46:29.397Z,23.40
2019-05-05T10:49:21.084Z,24.60
2019-05-05T10:52:14.048Z,25.63
2019-05-05T10:55:04.241Z,24.80
2019-05-05T10:57:55.078Z,24.87
2019-05-05T11:00:57.275Z,29.73
2019-05-05T11:03:47.756Z,26.77
2019-05-05T11:06:38.328Z,23.87
2019-05-05T11:09:28.754Z,25.37
2019-05-05T11:12:19.352Z,27.37
2019-05-05T11:15:09.456Z,27.00
2019-05-05T11:17:59.953Z,27.33
2019-05-05T11:20:50.602Z,27.63
2019-05-05T11:23:41.303Z,29.67
2019-05-05T11:26:33.866Z,27.07
2019-05-05T11:29:24.189Z,33.37
2019-05-05T11:32:21.497Z,27.43
2019-05-05T11:35:13.891Z,27.37
2019-05-05T11:38:03.675Z,32.77
2019-05-05T11:40:54.811Z,32.80
2019-05-05T11:43:45.320Z,33.10
2019-05-05T11:46:35.962Z,32.20
2019-05-05T11:49:27.241Z,31.27
2019-05-05T11:52:17.708Z,28.00
2019-05-05T11:55:11.655Z,30.27
2019-05-05T11:58:00.567Z,31.90
2019-05-05T12:00:50.976Z,31.03
2019-05-05T12:03:41.442Z,28.27
2019-05-05T12:06:33.848Z,28.80
2019-05-05T12:09:29.784Z,26.67
2019-05-05T12:12:20.022Z,26.57
2019-05-05T12:15:10.470Z,35.13
2019-05-05T12:18:00.722Z,31.83
2019-05-05T12:20:51.164Z,34.60
2019-05-05T12:23:44.441Z,29.90
2019-05-05T12:26:54.164Z,35.70
2019-05-05T12:29:54.448Z,29.60
2019-05-05T12:32:44.871Z,31.13
2019-05-05T12:35:35.429Z,32.80
2019-05-05T12:38:25.969Z,40.57
2019-05-05T12:41:16.546Z,30.30
2019-05-05T12:44:08.497Z,35.73
2019-05-05T12:47:34.248Z,24.73
2019-05-05T12:50:24.937Z,31.47
2019-05-05T12:53:15.262Z,30.33
2019-05-05T12:56:05.924Z,27.77
2019-05-05T12:58:56.055Z,35.17
2019-05-05T13:01:46.752Z,25.63
2019-05-05T13:04:37.234Z,36.00
2019-05-05T13:07:28.116Z,27.97
2019-05-05T13:10:19.423Z,27.90
2019-05-05T13:13:10.170Z,27.03
2019-05-05T13:16:00.556Z,27.93
2019-05-05T13:18:51.119Z,30.73
2019-05-05T13:22:06.626Z,30.30
2019-05-05T13:25:21.981Z,33.63
2019-05-05T13:28:11.997Z,32.80
2019-05-05T13:31:04.610Z,31.43
2019-05-05T13:33:54.951Z,26.77
2019-05-05T13:36:48.527Z,27.03
2019-05-05T13:39:38.897Z,27.60
2019-05-05T13:42:30.160Z,33.13
2019-05-05T13:45:38.696Z,35.87
2019-05-05T13:48:29.502Z,40.47
2019-05-05T13:51:19.950Z,34.10
2019-05-05T13:54:10.723Z,39.17
2019-05-05T13:57:01.063Z,36.63
2019-05-05T13:59:51.373Z,34.53
2019-05-05T14:02:43.893Z,31.77
2019-05-05T14:05:34.500Z,40.73
2019-05-05T14:08:25.936Z,33.23
2019-05-05T14:11:16.661Z,37.10
2019-05-05T14:14:07.102Z,44.03
2019-05-05T14:16:57.683Z,38.80
2019-05-05T14:20:01.555Z,42.80
2019-05-05T14:22:39.942Z,26.67
2019-05-05T14:25:30.899Z,36.93
2019-05-05T14:28:23.639Z,38.47
2019-05-05T14:31:16.975Z,34.23
2019-05-05T14:34:15.853Z,36.13
2019-05-05T14:37:24.854Z,32.07
2019-05-05T14:40:15.316Z,40.97
2019-05-05T14:43:05.720Z,39.33
2019-05-05T14:45:56.417Z,30.17
2019-05-05T14:48:46.593Z,32.67
2019-05-05T14:51:36.928Z,28.83
2019-05-05T14:54:27.381Z,37.00
2019-05-05T14:57:18.704Z,30.43
2019-05-05T15:00:10.365Z,31.93
2019-05-05T15:03:03.686Z,31.20
2019-05-05T15:06:20.002Z,28.87
2019-05-05T15:09:27.573Z,31.53
2019-05-05T15:12:30.434Z,32.43
2019-05-05T15:15:23.620Z,34.17
2019-05-05T15:18:14.631Z,34.67
2019-05-05T15:21:05.062Z,39.03
2019-05-05T15:23:55.292Z,37.70
2019-05-05T15:26:51.957Z,38.07
2019-05-05T15:29:37.647Z,39.57
2019-05-05T15:32:27.904Z,31.87
2019-05-05T15:35:18.384Z,31.10
2019-05-05T15:38:08.648Z,38.30
2019-05-05T15:40:58.953Z,39.67
2019-05-05T15:43:49.235Z,36.00
2019-05-05T15:46:39.791Z,35.83
2019-05-05T15:49:30.410Z,40.13
2019-05-05T15:52:21.012Z,34.70
2019-05-05T15:55:11.297Z,41.03
2019-05-05T15:58:03.509Z,28.67
2019-05-05T16:00:55.024Z,41.80
2019-05-05T16:03:45.217Z,35.70
2019-05-05T16:06:35.678Z,36.10
2019-05-05T16:09:26.092Z,42.80
2019-05-05T16:12:16.552Z,47.83
2019-05-05T16:15:26.725Z,35.73
2019-05-05T16:18:24.706Z,62.37
2019-05-05T16:21:34.620Z,57.50
2019-05-05T16:24:31.392Z,78.00
2019-05-05T16:27:24.900Z,60.43
2019-05-05T16:30:17.069Z,61.53
2019-05-05T16:33:07.606Z,55.13
2019-05-05T16:35:58.091Z,48.37
2019-05-05T16:38:48.651Z,47.87
2019-05-05T16:41:39.333Z,53.17
2019-05-05T16:44:29.960Z,42.17
2019-05-05T16:47:20.887Z,41.27
2019-05-05T16:50:11.267Z,36.67
2019-05-05T16:53:04.366Z,41.27
2019-05-05T16:55:56.583Z,47.57
2019-05-05T16:58:47.297Z,47.60
2019-05-05T17:01:37.605Z,51.57
2019-05-05T17:04:30.352Z,52.17
2019-05-05T17:07:20.802Z,55.87
2019-05-05T17:10:11.108Z,58.93
2019-05-05T17:13:07.184Z,49.73
2019-05-05T17:16:15.269Z,53.17
2019-05-05T17:19:14.173Z,56.17
2019-05-05T17:22:35.682Z,58.80
2019-05-05T17:25:25.645Z,56.03
2019-05-05T17:28:16.366Z,52.50
2019-05-05T17:31:06.940Z,44.60
2019-05-05T17:33:57.287Z,53.03
2019-05-05T17:36:47.677Z,50.70
2019-05-05T17:39:43.790Z,55.60
2019-05-05T17:42:45.098Z,59.27
2019-05-05T17:45:55.078Z,55.80
2019-05-05T17:49:04.678Z,47.90
2019-05-05T17:52:00.310Z,43.47
2019-05-05T17:54:54.048Z,53.47
2019-05-05T17:57:45.445Z,50.03
2019-05-05T18:00:43.476Z,45.90
2019-05-05T18:03:34.076Z,43.23
2019-05-05T18:06:34.887Z,44.07
2019-05-05T18:09:35.227Z,45.10
2019-05-05T18:12:54.068Z,35.50
2019-05-05T18:15:54.334Z,45.87
2019-05-05T18:18:46.133Z,44.03
2019-05-05T18:21:36.661Z,46.90
2019-05-05T18:24:27.127Z,40.83
2019-05-05T18:27:18.072Z,35.37
2019-05-05T18:30:08.532Z,26.10
2019-05-05T18:32:58.998Z,29.90
2019-05-05T18:35:49.528Z,28.33
2019-05-05T18:38:40.147Z,31.20
2019-05-05T18:41:39.006Z,26.23
2019-05-05T18:44:35.977Z,32.60
2019-05-05T18:47:29.239Z,33.23
2019-05-05T18:50:19.554Z,33.70
2019-05-05T18:53:10.114Z,24.73
2019-05-05T18:56:00.645Z,30.50
2019-05-05T18:58:50.978Z,24.43
2019-05-05T19:01:48.646Z,27.93
2019-05-05T19:04:48.817Z,28.97
2019-05-05T19:07:55.234Z,30.40
2019-05-05T19:10:37.904Z,30.73
2019-05-05T19:13:28.548Z,34.33
2019-05-05T19:16:18.791Z,27.23
2019-05-05T19:19:09.512Z,30.20
2019-05-05T19:22:04.645Z,30.17
2019-05-05T19:24:55.242Z,30.23
2019-05-05T19:27:46.421Z,33.20
2019-05-05T19:30:36.725Z,35.47
2019-05-05T19:33:27.179Z,28.97
2019-05-05T19:36:17.714Z,31.27
2019-05-05T19:39:08.189Z,35.50
2019-05-05T19:42:00.598Z,33.93
2019-05-05T19:44:50.978Z,39.37
2019-05-05T19:47:43.885Z,36.53
2019-05-05T19:50:40.108Z,38.73
2019-05-05T19:53:30.362Z,27.00
2019-05-05T19:56:21.841Z,27.30
2019-05-05T19:59:13.722Z,33.87
2019-05-05T20:02:04.254Z,31.13
2019-05-05T20:04:54.970Z,38.13
2019-05-05T20:07:45.547Z,30.43
2019-05-05T20:10:35.816Z,29.87
2019-05-05T20:13:26.321Z,32.23
2019-05-05T20:16:26.541Z,35.07
2019-05-05T20:19:16.653Z,33.33
2019-05-05T20:22:08.065Z,26.97
2019-05-05T20:24:58.545Z,39.63
2019-05-05T20:27:48.687Z,29.27
2019-05-05T20:30:38.852Z,38.50
2019-05-05T20:33:38.271Z,38.90
2019-05-05T20:36:28.938Z,26.00
2019-05-05T20:39:19.449Z,30.97
2019-05-05T20:42:09.589Z,36.97
2019-05-05T20:44:59.961Z,37.57
2019-05-05T20:47:50.195Z,30.87
2019-05-05T20:50:41.056Z,35.00
2019-05-05T20:53:31.554Z,36.90
2019-05-05T20:56:22.253Z,37.07
2019-05-05T20:59:26.814Z,37.50
2019-05-05T21:02:04.745Z,42.73
2019-05-05T21:04:55.511Z,40.30
2019-05-05T21:07:46.988Z,49.27
2019-05-05T21:10:37.613Z,35.93
2019-05-05T21:13:27.832Z,41.37
2019-05-05T21:16:18.268Z,39.97
2019-05-05T21:19:08.570Z,34.93
2019-05-05T21:22:00.965Z,38.33
2019-05-05T21:24:51.308Z,40.80
2019-05-05T21:27:43.590Z,39.87
2019-05-05T21:30:34.257Z,36.60
2019-05-05T21:33:24.473Z,40.97
2019-05-05T21:36:14.863Z,35.27
2019-05-05T21:39:06.713Z,38.40
2019-05-05T21:41:58.317Z,31.50
2019-05-05T21:44:48.609Z,37.97
2019-05-05T21:47:39.584Z,45.07
2019-05-05T21:50:35.670Z,47.23
2019-05-05T21:53:36.411Z,37.83
2019-05-05T21:56:44.600Z,38.67
2019-05-05T21:59:35.055Z,32.77
2019-05-05T22:02:25.646Z,31.50
2019-05-05T22:05:15.917Z,39.60
2019-05-05T22:08:06.324Z,32.67
2019-05-05T22:10:56.659Z,29.50
2019-05-05T22:13:46.876Z,33.37
2019-05-05T22:16:37.499Z,31.93
2019-05-05T22:19:29.587Z,32.57
2019-05-05T22:22:21.486Z,32.80
2019-05-05T22:25:11.452Z,29.63
2019-05-05T22:28:04.142Z,36.83
2019-05-05T22:30:55.557Z,36.57
2019-05-05T22:33:46.034Z,32.90
2019-05-05T22:36:36.530Z,42.20
2019-05-05T22:39:27.747Z,27.67
2019-05-05T22:42:18.368Z,40.97
2019-05-05T22:45:09.367Z,35.23
2019-05-05T22:47:59.966Z,34.27
2019-05-05T22:50:50.513Z,31.50
2019-05-05T22:53:40.943Z,36.27
2019-05-05T22:56:33.744Z,37.30
2019-05-05T22:59:26.146Z,37.30
2019-05-05T23:02:17.760Z,36.97
2019-05-05T23:05:25.119Z,37.60
2019-05-05T23:08:18.398Z,34.90
2019-05-05T23:11:07.463Z,38.77
2019-05-05T23:14:16.843Z,34.97
2019-05-05T23:17:34.025Z,29.53
2019-05-05T23:20:54.697Z,39.77
2019-05-05T23:24:14.179Z,38.13
2019-05-05T23:27:04.814Z,35.00
2019-05-05T23:29:55.211Z,35.67
2019-05-05T23:32:45.962Z,42.30
2019-05-05T23:35:36.382Z,27.83
2019-05-05T23:38:26.829Z,27.13
2019-05-05T23:41:17.324Z,37.10
2019-05-05T23:44:07.904Z,36.17
2019-05-05T23:46:58.285Z,30.40
2019-05-05T23:49:48.810Z,48.77
2019-05-05T23:52:39.112Z,23.33
2019-05-05T23:55:29.692Z,9.77
2019-05-05T23:58:21.074Z,17.87
